createdAt,value
2022-08-01T00:00:16.980Z,17.432870
2022-08-01T00:05:17.098Z,17.094907
2022-08-01T00:10:17.079Z,16.835648
2022-08-01T00:15:17.021Z,16.638889
2022-08-01T00:20:17.074Z,16.511111
2022-08-01T00:25:17.024Z,16.428241
2022-08-01T00:30:17.091Z,16.402222
2022-08-01T00:35:17.014Z,16.386574
2022-08-01T00:40:16.999Z,16.384259
2022-08-01T00:45:17.030Z,16.414352
2022-08-01T00:50:17.379Z,16.365741
2022-08-01T00:55:17.492Z,16.315556
2022-08-01T01:00:17.494Z,16.280093
2022-08-01T01:05:17.537Z,16.372685
2022-08-01T01:10:17.275Z,16.398148
2022-08-01T01:15:17.019Z,16.453704
2022-08-01T01:20:17.169Z,16.444444
2022-08-01T01:25:17.036Z,16.472222
2022-08-01T01:30:17.057Z,16.520833
2022-08-01T01:35:17.075Z,16.601852
2022-08-01T01:40:17.058Z,16.689815
2022-08-01T01:45:17.026Z,16.697778
2022-08-01T01:50:17.233Z,16.835648
2022-08-01T01:55:17.095Z,16.944444
2022-08-01T02:00:17.013Z,16.967593
2022-08-01T02:05:17.033Z,17.048611
2022-08-01T02:10:17.044Z,17.143519
2022-08-01T02:15:17.240Z,17.143519
2022-08-01T02:20:17.007Z,17.106481
2022-08-01T02:25:17.061Z,17.062500
2022-08-01T02:30:17.126Z,16.960648
2022-08-01T02:35:17.228Z,16.884259
2022-08-01T02:40:16.952Z,16.854167
2022-08-01T02:45:17.392Z,16.849537
2022-08-01T02:50:17.391Z,16.863426
2022-08-01T02:55:17.144Z,16.875000
2022-08-01T03:00:17.017Z,17.097222
2022-08-01T03:05:17.099Z,17.398148
2022-08-01T03:10:17.091Z,17.664352
2022-08-01T03:15:17.045Z,17.821759
2022-08-01T03:20:16.997Z,17.668981
2022-08-01T03:25:17.111Z,17.414352
2022-08-01T03:30:17.057Z,17.335648
2022-08-01T03:35:17.039Z,17.354167
2022-08-01T03:40:17.123Z,17.671296
2022-08-01T03:45:16.995Z,18.233796
2022-08-01T03:50:16.984Z,18.636574
2022-08-01T03:55:17.004Z,18.813333
2022-08-01T04:00:16.916Z,18.886574
2022-08-01T04:05:16.976Z,18.990741
2022-08-01T04:10:16.999Z,19.067130
2022-08-01T04:15:17.269Z,19.060185
2022-08-01T04:20:17.141Z,19.122685
2022-08-01T04:25:16.948Z,19.178241
2022-08-01T04:30:18.074Z,19.252315
2022-08-01T04:35:23.403Z,19.298611
2022-08-01T04:40:17.073Z,19.326389
2022-08-01T04:45:16.971Z,19.328889
2022-08-01T04:50:16.961Z,19.331019
2022-08-01T04:55:16.878Z,19.358796
2022-08-01T05:00:16.890Z,19.453704
2022-08-01T05:05:17.014Z,19.495370
2022-08-01T05:10:17.040Z,19.523148
2022-08-01T05:15:17.217Z,19.539352
2022-08-01T05:20:16.945Z,19.537037
2022-08-01T05:25:19.987Z,19.585648
2022-08-01T05:30:16.962Z,19.608889
2022-08-01T05:35:17.002Z,19.578704
2022-08-01T05:40:16.928Z,19.555556
2022-08-01T05:45:16.997Z,19.500000
2022-08-01T05:50:17.071Z,19.194444
2022-08-01T05:55:17.035Z,18.717593
2022-08-01T06:00:17.272Z,18.414352
2022-08-01T06:05:16.966Z,18.219907
2022-08-01T06:10:16.906Z,18.131944
2022-08-01T06:15:16.912Z,18.104167
2022-08-01T06:20:16.959Z,18.027778
2022-08-01T06:25:20.751Z,18.104167
2022-08-01T06:30:16.926Z,18.166667
2022-08-01T06:35:16.934Z,18.152778
2022-08-01T06:40:17.638Z,18.196759
2022-08-01T06:45:16.863Z,18.300926
2022-08-01T06:50:16.914Z,18.365741
2022-08-01T06:55:16.887Z,18.414352
2022-08-01T07:00:17.035Z,18.625000
2022-08-01T07:05:16.923Z,18.956019
2022-08-01T07:10:17.026Z,19.212963
2022-08-01T07:15:17.133Z,19.537037
2022-08-01T07:20:17.191Z,19.693333
2022-08-01T07:25:17.046Z,19.861111
2022-08-01T07:30:17.208Z,20.194444
2022-08-01T07:35:17.159Z,20.240741
2022-08-01T07:40:17.167Z,20.358796
2022-08-01T07:45:16.866Z,20.365741
2022-08-01T07:50:16.944Z,20.407407
2022-08-01T07:55:16.978Z,20.456019
2022-08-01T08:00:17.294Z,20.173611
2022-08-01T08:05:16.833Z,20.145833
2022-08-01T08:10:17.108Z,20.358796
2022-08-01T08:15:17.136Z,20.456019
2022-08-01T08:20:16.834Z,20.574074
2022-08-01T08:25:16.898Z,21.270833
2022-08-01T08:30:16.903Z,21.793981
2022-08-01T08:35:22.971Z,21.566667
2022-08-01T08:40:16.875Z,21.200000
2022-08-01T08:45:16.917Z,21.259259
2022-08-01T08:50:16.949Z,21.652778
2022-08-01T08:55:16.831Z,21.594907
2022-08-01T09:00:16.887Z,21.344907
2022-08-01T09:05:19.638Z,21.442130
2022-08-01T09:10:16.931Z,21.706019
2022-08-01T09:15:16.865Z,21.696759
2022-08-01T09:20:16.834Z,21.574074
2022-08-01T09:25:16.868Z,20.958333
2022-08-01T09:30:19.300Z,19.900463
2022-08-01T09:35:16.826Z,19.238426
2022-08-01T09:40:17.367Z,19.083333
2022-08-01T09:45:20.248Z,19.305556
2022-08-01T09:50:16.840Z,20.000000
2022-08-01T09:55:16.927Z,21.064815
2022-08-01T10:00:35.718Z,21.928889
2022-08-01T10:05:18.938Z,22.185185
2022-08-01T10:10:17.052Z,22.231481
2022-08-01T10:15:18.047Z,22.655093
2022-08-01T10:20:30.474Z,22.953704
2022-08-01T10:25:16.822Z,23.048611
2022-08-01T10:30:23.527Z,22.817130
2022-08-01T10:35:17.129Z,22.291667
2022-08-01T10:40:29.833Z,22.148148
2022-08-01T10:45:16.860Z,22.481481
2022-08-01T10:50:21.914Z,22.967593
2022-08-01T10:55:16.849Z,23.983796
2022-08-01T11:00:16.849Z,23.363426
2022-08-01T11:05:16.811Z,23.652778
2022-08-01T11:10:16.847Z,24.125000
2022-08-01T11:15:16.870Z,23.960000
2022-08-01T11:20:16.778Z,24.756944
2022-08-01T11:25:16.860Z,25.202222
2022-08-01T11:30:16.861Z,24.677778
2022-08-01T11:35:17.282Z,23.935185
2022-08-01T11:40:16.765Z,23.398148
2022-08-01T11:45:18.684Z,23.331019
2022-08-01T11:50:16.887Z,23.979167
2022-08-01T11:55:16.847Z,23.812500
2022-08-01T12:00:17.545Z,23.497685
2022-08-01T12:05:16.908Z,23.458333
2022-08-01T12:10:17.346Z,24.300926
2022-08-01T12:15:16.850Z,24.872685
2022-08-01T12:20:17.331Z,25.009259
2022-08-01T12:25:16.799Z,24.094907
2022-08-01T12:30:17.151Z,23.803241
2022-08-01T12:35:18.588Z,24.680556
2022-08-01T12:40:16.787Z,24.826389
2022-08-01T12:45:16.783Z,24.328704
2022-08-01T12:50:16.779Z,24.506944
2022-08-01T12:55:16.776Z,24.907407
2022-08-01T13:00:16.950Z,25.078704
2022-08-01T13:05:16.754Z,25.113426
2022-08-01T13:10:16.749Z,25.384259
2022-08-01T13:15:16.765Z,25.578704
2022-08-01T13:20:16.754Z,24.395833
2022-08-01T13:25:20.803Z,24.664352
2022-08-01T13:30:16.774Z,25.458333
2022-08-01T13:35:17.148Z,25.224537
2022-08-01T13:40:16.966Z,25.271111
2022-08-01T13:45:16.760Z,24.706019
2022-08-01T13:50:16.792Z,25.023148
2022-08-01T13:55:16.794Z,25.388889
2022-08-01T14:00:16.740Z,25.317130
2022-08-01T14:05:16.880Z,25.675926
2022-08-01T14:10:19.612Z,24.921296
2022-08-01T14:15:25.673Z,24.423611
2022-08-01T14:20:16.759Z,24.120000
2022-08-01T14:25:57.707Z,24.449074
2022-08-01T14:30:16.753Z,24.312500
2022-08-01T14:35:17.080Z,24.408889
2022-08-01T14:40:16.950Z,24.414352
2022-08-01T14:45:16.991Z,24.202222
2022-08-01T14:50:17.631Z,24.125000
2022-08-01T14:55:16.747Z,24.728889
2022-08-01T15:00:16.814Z,25.222222
2022-08-01T15:05:16.721Z,25.305556
2022-08-01T15:10:16.787Z,24.729167
2022-08-01T15:15:16.687Z,24.185185
2022-08-01T15:20:16.820Z,24.238426
2022-08-01T15:25:16.869Z,24.627315
2022-08-01T15:30:16.733Z,24.907407
2022-08-01T15:35:16.763Z,25.194444
2022-08-01T15:40:16.725Z,25.046296
2022-08-01T15:45:37.375Z,24.881944
2022-08-01T15:50:16.837Z,25.020000
2022-08-01T15:55:16.830Z,25.018519
2022-08-01T16:00:16.746Z,25.085648
2022-08-01T16:05:20.147Z,24.942130
2022-08-01T16:10:16.795Z,24.875000
2022-08-01T16:15:16.831Z,24.833333
2022-08-01T16:20:16.892Z,24.710648
2022-08-01T16:25:16.737Z,24.687500
2022-08-01T16:30:17.270Z,24.638889
2022-08-01T16:35:16.836Z,24.444444
2022-08-01T16:40:16.921Z,24.210648
2022-08-01T16:45:16.701Z,24.175926
2022-08-01T16:50:16.972Z,24.143519
2022-08-01T16:55:16.780Z,24.104167
2022-08-01T17:00:21.165Z,24.071759
2022-08-01T17:05:16.778Z,23.918981
2022-08-01T17:10:16.918Z,23.680556
2022-08-01T17:15:16.716Z,23.618056
2022-08-01T17:20:16.713Z,23.680556
2022-08-01T17:25:16.701Z,23.613426
2022-08-01T17:30:16.732Z,23.465278
2022-08-01T17:35:16.710Z,23.370370
2022-08-01T17:40:39.021Z,23.231481
2022-08-01T17:45:27.995Z,23.141204
2022-08-01T17:50:16.777Z,23.101852
2022-08-01T17:55:55.374Z,22.956019
2022-08-01T18:00:16.670Z,22.828704
2022-08-01T18:05:16.648Z,22.696759
2022-08-01T18:10:16.993Z,22.171296
2022-08-01T18:15:16.909Z,21.662037
2022-08-01T18:20:16.855Z,21.400463
2022-08-01T18:25:16.832Z,21.069444
2022-08-01T18:30:16.866Z,20.870370
2022-08-01T18:35:16.715Z,20.597222
2022-08-01T18:40:22.674Z,20.046296
2022-08-01T18:45:16.930Z,19.541667
2022-08-01T18:50:16.668Z,19.146667
2022-08-01T18:55:16.705Z,18.953704
2022-08-01T19:00:16.621Z,18.775463
2022-08-01T19:05:16.961Z,18.442130
2022-08-01T19:10:16.992Z,18.099537
2022-08-01T19:15:16.934Z,17.864444
2022-08-01T19:20:16.899Z,17.666667
2022-08-01T19:25:16.772Z,17.435185
2022-08-01T19:30:16.656Z,17.310185
2022-08-01T19:35:16.736Z,17.159722
2022-08-01T19:40:27.484Z,16.949074
2022-08-01T19:45:16.861Z,16.786667
2022-08-01T19:50:16.665Z,16.668981
2022-08-01T19:55:16.922Z,16.500000
2022-08-01T20:00:24.066Z,16.365741
2022-08-01T20:05:16.766Z,16.231481
2022-08-01T20:10:16.681Z,16.127315
2022-08-01T20:15:16.729Z,16.057870
2022-08-01T20:20:16.708Z,15.995370
2022-08-01T20:25:16.745Z,15.932870
2022-08-01T20:30:16.740Z,15.863426
2022-08-01T20:35:16.801Z,15.726852
2022-08-01T20:40:16.713Z,15.666667
2022-08-01T20:45:18.785Z,15.655093
2022-08-01T20:50:52.295Z,15.675926
2022-08-01T20:55:16.876Z,15.699074
2022-08-01T21:00:16.690Z,15.673611
2022-08-01T21:05:16.754Z,15.708333
2022-08-01T21:10:16.863Z,15.650463
2022-08-01T21:15:16.729Z,15.534722
2022-08-01T21:20:16.702Z,15.449074
2022-08-01T21:25:16.730Z,15.372685
2022-08-01T21:30:16.806Z,15.347222
2022-08-01T21:35:18.875Z,15.375000
2022-08-01T21:40:16.705Z,15.460000
2022-08-01T21:45:16.737Z,15.480000
2022-08-01T21:50:16.687Z,15.388889
2022-08-01T21:55:16.625Z,15.326389
2022-08-01T22:00:25.153Z,15.238426
2022-08-01T22:05:16.740Z,15.120370
2022-08-01T22:10:16.661Z,15.000000
2022-08-01T22:15:16.701Z,14.868056
2022-08-01T22:20:16.676Z,14.715278
2022-08-01T22:25:16.930Z,14.606481
2022-08-01T22:30:16.714Z,14.483796
2022-08-01T22:35:16.715Z,14.451389
2022-08-01T22:40:16.690Z,14.458333
2022-08-01T22:45:16.714Z,14.293981
2022-08-01T22:50:16.740Z,14.291667
2022-08-01T22:55:16.689Z,14.133333
2022-08-01T23:00:16.705Z,14.002315
2022-08-01T23:05:16.629Z,13.925926
2022-08-01T23:10:16.722Z,13.824074
2022-08-01T23:15:16.714Z,13.817130
2022-08-01T23:20:16.614Z,13.733796
2022-08-01T23:25:16.785Z,13.810185
2022-08-01T23:30:16.691Z,13.780000
2022-08-01T23:35:16.773Z,13.763889
2022-08-01T23:40:16.735Z,13.641204
2022-08-01T23:45:16.725Z,13.728889
2022-08-01T23:50:16.953Z,13.652778
2022-08-01T23:55:16.795Z,13.685185
